KINS/INS METAR and TAF weather

Enter ICAO airport designator
Station Type Date Time Source
KINS METAR 2020/07/06 18:58 UTC NOAA

KINS 061858Z AUTO 10009KT 10SM CLR 36/M07 A2991 RMK AO2 SLP072 T03631070 $


Station Type Date Time Source
KINS Decoded METAR 2020/07/06 18:58 UTC NOAA

Indian Springs, Indian Springs Auxiliary AFLD Nellis AFB, NV, United States (KINS) 36-35N 115-40W
Jul 06, 2020 - 02:58 PM EDT / 2020.07.06 1858 UTC
Wind: from the E (100 degrees) at 10 MPH (9 KT):0
Visibility: 10 mile(s):0
Sky conditions: clear
Temperature: 97.3 F (36.3 C)
Dew Point: 19.4 F (-7.0 C)
Relative Humidity: 5%
Pressure (altimeter): 29.91 in. Hg (1012 hPa)
ob: KINS 061858Z AUTO 10009KT 10SM CLR 36/M07 A2991 RMK AO2 SLP072 T03631070
cycle: 19

Station Type Date Time Source
KINS TAF 2020/07/03 05:48 UTC NOAA

TAF TAF KINS 030446Z 0305/0411 VRB06KT 9999 SKC QNH2989INS
BECMG 0317/0318 13012G20KT 9999 SKC 510009 QNH2993INS
TEMPO 0321/0324 13015G30KT WND 130V220
BECMG 0323/0324 22015G25KT 9999 SKC 510009 QNH2992INS
BECMG 0404/0405 22009KT 9999 SKC QNH2997INS TX37/0323Z TN20/0313Z LAST NO
AMDS AFT 0305 NEXT 0705

Example: see airport list